Shiquanhe, China
Current Conditions -  °F | °C
As of 4:30 PM on Saturday 25 Oct 2014 (Local Time) from VIAR Reporting Station
Clear Clear  
Wind Chill: 84°   Ceiling: Unl
Heat Index: 84°   Visibility: 4mi
Dew Point: 61°   Wind: 8mph
Humidity: 45%   Direction: 280°W
Pressure: 29.88"   Gusts: NA
Location:  32.5°N, 80.08°E
Report Text: VIAR 250830Z 28007KT 250V320 6000 NSC 29/16 Q1012
Loading
Personal Weather Stations






























Interactive Weather Map
Tropical Storm Tracking
New forecast layout! Learn more

10-Day Weather Forecast

Advertisements
Track Severe Weather on mobile